createdAt,value
2018-06-08T00:02:06.887Z,5.20
2018-06-08T00:08:00.404Z,6.27
2018-06-08T00:10:34.765Z,5.50
2018-06-08T00:13:08.236Z,5.93
2018-06-08T00:15:40.514Z,7.50
2018-06-08T00:18:14.364Z,6.00
2018-06-08T00:20:47.638Z,5.00
2018-06-08T00:23:20.417Z,5.60
2018-06-08T00:25:56.656Z,6.70
2018-06-08T00:28:28.906Z,7.23
2018-06-08T00:31:01.715Z,5.73
2018-06-08T00:33:36.145Z,6.87
2018-06-08T00:36:09.975Z,7.90
2018-06-08T00:38:43.420Z,7.57
2018-06-08T00:41:17.499Z,8.30
2018-06-08T00:43:49.647Z,7.63
2018-06-08T00:46:23.574Z,7.30
2018-06-08T00:49:09.772Z,6.80
2018-06-08T00:51:42.306Z,6.17
2018-06-08T00:54:15.124Z,6.90
2018-06-08T00:56:50.689Z,7.67
2018-06-08T00:59:24.238Z,6.17
2018-06-08T01:01:59.552Z,8.57
2018-06-08T01:04:33.595Z,8.67
2018-06-08T01:07:07.245Z,9.40
2018-06-08T01:09:39.609Z,8.23
2018-06-08T01:15:39.738Z,11.27
2018-06-08T01:18:12.435Z,10.53
2018-06-08T01:20:45.103Z,11.80
2018-06-08T01:23:19.676Z,9.40
2018-06-08T01:26:01.546Z,10.87
2018-06-08T01:28:35.219Z,8.80
2018-06-08T01:31:09.691Z,10.20
2018-06-08T01:33:45.956Z,9.10
2018-06-08T01:36:18.625Z,9.87
2018-06-08T01:38:51.358Z,8.40
2018-06-08T01:41:24.511Z,9.57
2018-06-08T01:43:59.005Z,8.17
2018-06-08T01:46:32.517Z,10.13
2018-06-08T01:49:05.267Z,10.20
2018-06-08T01:51:38.650Z,9.93
2018-06-08T01:54:15.464Z,9.37
2018-06-08T01:56:48.802Z,11.30
2018-06-08T01:59:22.288Z,10.63
2018-06-08T02:01:55.051Z,9.30
2018-06-08T02:04:28.871Z,10.43
2018-06-08T02:07:02.232Z,10.87
2018-06-08T02:09:35.814Z,11.73
2018-06-08T02:12:09.074Z,10.80
2018-06-08T02:14:41.365Z,11.67
2018-06-08T02:17:16.905Z,13.17
2018-06-08T02:20:03.598Z,12.73
2018-06-08T02:22:37.559Z,11.03
2018-06-08T02:25:13.299Z,9.97
2018-06-08T02:27:45.952Z,11.83
2018-06-08T02:30:18.594Z,12.27
2018-06-08T02:32:51.322Z,11.80
2018-06-08T02:38:19.106Z,10.37
2018-06-08T02:40:58.854Z,12.17
2018-06-08T02:43:47.947Z,12.17
2018-06-08T02:46:30.860Z,12.20
2018-06-08T02:52:04.438Z,11.90
2018-06-08T02:54:52.288Z,11.60
2018-06-08T02:57:29.853Z,11.23
2018-06-08T03:00:09.428Z,12.80
2018-06-08T03:02:50.676Z,16.13
2018-06-08T03:05:31.366Z,12.77
2018-06-08T03:08:08.204Z,13.70
2018-06-08T03:10:47.765Z,13.37
2018-06-08T03:13:20.655Z,12.13
2018-06-08T03:15:54.478Z,12.83
2018-06-08T03:18:27.226Z,12.70
2018-06-08T03:24:06.920Z,11.87
2018-06-08T03:26:39.326Z,11.97
2018-06-08T03:29:13.542Z,13.37
2018-06-08T03:31:47.367Z,13.07
2018-06-08T03:34:21.209Z,13.87
2018-06-08T03:36:55.236Z,14.10
2018-06-08T03:39:28.235Z,13.70
2018-06-08T03:42:05.397Z,13.90
2018-06-08T03:44:40.547Z,12.40
2018-06-08T03:47:18.553Z,13.70
2018-06-08T03:49:57.088Z,12.13
2018-06-08T03:52:35.346Z,12.73
2018-06-08T03:55:13.399Z,12.00
2018-06-08T03:57:51.911Z,11.97
2018-06-08T04:00:24.481Z,11.77
2018-06-08T04:02:56.878Z,11.30
2018-06-08T04:05:30.291Z,11.80
2018-06-08T04:08:03.320Z,12.00
2018-06-08T04:10:35.584Z,11.83
2018-06-08T04:13:16.982Z,12.80
2018-06-08T04:15:50.563Z,13.03
2018-06-08T04:18:22.799Z,14.37
2018-06-08T04:20:57.035Z,15.77
2018-06-08T04:23:30.169Z,15.07
2018-06-08T04:26:02.474Z,13.83
2018-06-08T04:28:34.953Z,12.57
2018-06-08T04:31:08.389Z,11.43
2018-06-08T04:33:40.976Z,12.40
2018-06-08T04:36:14.127Z,13.40
2018-06-08T04:38:46.479Z,12.77
2018-06-08T04:41:20.125Z,13.80
2018-06-08T04:43:52.474Z,13.03
2018-06-08T04:46:25.799Z,14.80
2018-06-08T04:48:58.956Z,13.93
2018-06-08T04:51:34.680Z,14.47
2018-06-08T04:54:07.894Z,14.63
2018-06-08T04:56:40.264Z,14.87
2018-06-08T04:59:15.801Z,14.33
2018-06-08T05:05:05.650Z,14.30
2018-06-08T05:07:40.555Z,15.57
2018-06-08T05:10:13.186Z,16.97
2018-06-08T05:12:46.779Z,16.57
2018-06-08T05:15:20.733Z,16.10
2018-06-08T05:17:55.504Z,15.57
2018-06-08T05:20:31.895Z,14.23
2018-06-08T05:23:07.909Z,14.13
2018-06-08T05:25:43.355Z,14.67
2018-06-08T05:28:16.368Z,15.00
2018-06-08T05:30:52.090Z,16.53
2018-06-08T05:33:24.644Z,13.40
2018-06-08T05:35:58.165Z,12.70
2018-06-08T05:38:30.499Z,13.77
2018-06-08T05:41:05.487Z,14.00
2018-06-08T05:43:38.020Z,15.03
2018-06-08T05:46:11.399Z,13.93
2018-06-08T05:48:45.647Z,14.73
2018-06-08T05:51:24.124Z,14.47
2018-06-08T05:53:58.267Z,13.97
2018-06-08T05:56:31.692Z,15.77
2018-06-08T05:59:06.838Z,13.73
2018-06-08T06:05:04.507Z,10.90
2018-06-08T06:07:36.899Z,13.30
2018-06-08T06:10:09.941Z,13.73
2018-06-08T06:12:43.934Z,14.37
2018-06-08T06:15:16.355Z,15.63
2018-06-08T06:17:52.570Z,17.43
2018-06-08T06:20:28.170Z,19.17
2018-06-08T06:23:05.810Z,17.00
2018-06-08T06:28:30.427Z,16.07
2018-06-08T06:31:10.745Z,16.10
2018-06-08T06:33:43.797Z,16.13
2018-06-08T06:36:17.724Z,15.70
2018-06-08T06:39:00.659Z,15.83
2018-06-08T06:41:33.720Z,15.57
2018-06-08T06:44:09.026Z,15.27
2018-06-08T06:46:52.305Z,16.10
2018-06-08T06:49:25.302Z,15.97
2018-06-08T06:52:08.765Z,16.73
2018-06-08T06:54:44.164Z,15.60
2018-06-08T06:57:18.091Z,15.57
2018-06-08T06:59:59.619Z,14.43
2018-06-08T07:02:31.813Z,16.00
2018-06-08T07:05:09.155Z,16.83
2018-06-08T07:07:48.102Z,17.03
2018-06-08T07:10:23.819Z,16.23
2018-06-08T07:12:56.751Z,16.93
2018-06-08T07:15:29.884Z,16.83
2018-06-08T07:18:02.149Z,16.33
2018-06-08T07:24:07.275Z,15.80
2018-06-08T07:27:07.723Z,15.83
2018-06-08T07:29:41.408Z,14.33
2018-06-08T07:32:30.666Z,15.73
2018-06-08T07:35:07.392Z,15.53
2018-06-08T07:37:44.394Z,16.43
2018-06-08T07:40:20.779Z,15.90
2018-06-08T07:42:57.364Z,15.27
2018-06-08T07:45:31.885Z,16.03
2018-06-08T07:48:26.594Z,15.77
2018-06-08T07:50:59.880Z,16.33
2018-06-08T07:53:32.188Z,15.67
2018-06-08T07:56:04.998Z,15.93
2018-06-08T07:58:37.617Z,15.10
2018-06-08T08:01:16.783Z,15.87
2018-06-08T08:03:51.086Z,15.67
2018-06-08T08:06:27.103Z,13.80
2018-06-08T08:08:59.640Z,14.70
2018-06-08T08:11:33.077Z,13.77
2018-06-08T08:17:26.830Z,14.47
2018-06-08T08:19:59.208Z,14.43
2018-06-08T08:22:31.601Z,17.60
2018-06-08T08:25:04.197Z,18.93
2018-06-08T08:27:36.418Z,17.93
2018-06-08T08:30:09.132Z,17.63
2018-06-08T08:32:41.348Z,17.30
2018-06-08T08:35:13.788Z,15.20
2018-06-08T08:38:14.653Z,15.70
2018-06-08T08:40:47.140Z,15.43
2018-06-08T08:43:19.442Z,14.70
2018-06-08T08:45:51.838Z,15.97
2018-06-08T08:48:24.904Z,16.10
2018-06-08T08:51:33.971Z,15.87
2018-06-08T08:54:06.890Z,16.07
2018-06-08T08:56:40.020Z,13.50
2018-06-08T08:59:12.887Z,12.53
2018-06-08T09:01:45.690Z,13.20
2018-06-08T09:04:18.527Z,14.47
2018-06-08T09:06:51.377Z,14.70
2018-06-08T09:09:24.311Z,15.80
2018-06-08T09:11:57.221Z,15.83
2018-06-08T09:14:30.186Z,13.17
2018-06-08T09:17:03.127Z,14.20
2018-06-08T09:19:35.935Z,14.93
2018-06-08T09:22:08.852Z,12.87
2018-06-08T09:24:41.624Z,13.67
2018-06-08T09:27:14.621Z,14.93
2018-06-08T09:33:17.855Z,11.87
2018-06-08T09:35:50.314Z,13.33
2018-06-08T09:38:23.776Z,14.30
2018-06-08T09:40:56.891Z,13.33
2018-06-08T09:43:29.336Z,7.33
2018-06-08T09:46:01.685Z,6.23
2018-06-08T09:48:34.207Z,5.77
2018-06-08T09:51:06.742Z,6.47
2018-06-08T09:53:39.115Z,6.13
2018-06-08T09:56:11.645Z,6.10
2018-06-08T09:58:46.368Z,9.97
2018-06-08T10:01:18.913Z,9.53
2018-06-08T10:04:14.793Z,7.60
2018-06-08T10:06:46.974Z,9.03
2018-06-08T10:09:19.641Z,11.13
2018-06-08T10:11:52.788Z,11.90
2018-06-08T10:14:25.128Z,12.00
2018-06-08T10:16:57.490Z,12.13
2018-06-08T10:19:29.862Z,11.23
2018-06-08T10:22:02.206Z,11.87
2018-06-08T10:24:34.771Z,11.60
2018-06-08T10:27:07.438Z,12.50
2018-06-08T10:29:41.662Z,11.97
2018-06-08T10:32:21.747Z,12.47
2018-06-08T10:35:01.728Z,12.70
2018-06-08T10:37:34.101Z,11.33
2018-06-08T10:40:07.443Z,11.53
2018-06-08T10:42:39.781Z,11.00
2018-06-08T10:45:37.349Z,10.70
2018-06-08T10:48:09.904Z,10.80
2018-06-08T10:50:42.719Z,11.53
2018-06-08T10:53:18.426Z,11.43
2018-06-08T10:55:51.096Z,11.17
2018-06-08T10:58:23.481Z,9.10
2018-06-08T11:00:56.121Z,10.50
2018-06-08T11:03:28.576Z,9.83
2018-06-08T11:06:01.104Z,8.67
2018-06-08T11:08:36.768Z,9.77
2018-06-08T11:11:10.448Z,12.40
2018-06-08T11:13:43.908Z,14.30
2018-06-08T11:16:16.444Z,38.40
2018-06-08T11:18:48.907Z,43.43
2018-06-08T11:21:22.335Z,36.97
2018-06-08T11:23:55.404Z,26.47
2018-06-08T11:26:27.882Z,24.67
2018-06-08T11:29:00.262Z,24.77
2018-06-08T11:31:33.128Z,31.33
2018-06-08T11:34:06.088Z,31.43
2018-06-08T11:36:38.773Z,30.93
2018-06-08T11:39:11.930Z,29.40
2018-06-08T11:41:44.414Z,29.30
2018-06-08T11:44:16.843Z,29.00
2018-06-08T11:46:51.098Z,22.57
2018-06-08T11:49:25.539Z,24.33
2018-06-08T11:51:58.571Z,26.43
2018-06-08T11:54:31.588Z,22.73
2018-06-08T11:57:04.650Z,22.77
2018-06-08T11:59:37.210Z,26.27
2018-06-08T12:02:09.940Z,30.23
2018-06-08T12:04:43.296Z,25.47
2018-06-08T12:07:17.803Z,26.63
2018-06-08T12:09:50.231Z,25.63
2018-06-08T12:12:23.062Z,26.30
2018-06-08T12:14:55.729Z,17.07
2018-06-08T12:17:28.160Z,20.07
2018-06-08T12:20:00.704Z,14.60
2018-06-08T12:22:34.352Z,20.57
2018-06-08T12:25:06.904Z,20.87
2018-06-08T12:27:40.600Z,25.83
2018-06-08T12:30:13.618Z,22.70
2018-06-08T12:32:46.427Z,15.43
2018-06-08T12:38:40.076Z,12.77
2018-06-08T12:41:12.622Z,9.93
2018-06-08T12:43:45.447Z,7.83
2018-06-08T12:46:17.983Z,8.07
2018-06-08T12:48:50.344Z,11.53
2018-06-08T12:51:22.949Z,7.77
2018-06-08T12:53:55.353Z,8.57
2018-06-08T12:56:27.896Z,7.67
2018-06-08T12:59:02.524Z,4.60
2018-06-08T13:01:35.154Z,7.30
2018-06-08T13:04:07.776Z,5.43
2018-06-08T13:07:17.885Z,4.10
2018-06-08T13:09:50.318Z,4.80
2018-06-08T13:12:22.668Z,4.27
2018-06-08T13:14:54.979Z,5.77
2018-06-08T13:17:27.313Z,4.67
2018-06-08T13:19:59.582Z,5.33
2018-06-08T13:22:32.082Z,3.97
2018-06-08T13:25:04.795Z,3.87
2018-06-08T13:27:37.239Z,4.43
2018-06-08T13:30:09.648Z,3.63
2018-06-08T13:32:42.313Z,3.13
2018-06-08T13:35:15.103Z,4.23
2018-06-08T13:37:49.073Z,3.23
2018-06-08T13:40:22.416Z,3.70
2018-06-08T13:42:55.670Z,5.40
2018-06-08T13:48:22.092Z,3.80
2018-06-08T13:50:55.992Z,6.00
2018-06-08T13:53:30.014Z,4.57
2018-06-08T13:56:03.374Z,6.63
2018-06-08T13:58:36.297Z,7.33
2018-06-08T14:01:29.640Z,7.40
2018-06-08T14:04:03.032Z,8.77
2018-06-08T14:06:35.579Z,6.60
2018-06-08T14:09:08.858Z,7.57
2018-06-08T14:11:42.034Z,6.63
2018-06-08T14:14:14.461Z,5.47
2018-06-08T14:16:47.919Z,31.43
2018-06-08T14:19:21.029Z,81.83
2018-06-08T14:21:54.862Z,82.47
2018-06-08T14:24:27.233Z,43.13
2018-06-08T14:27:02.149Z,29.57
2018-06-08T14:29:34.973Z,11.63
2018-06-08T14:32:09.854Z,7.17
2018-06-08T14:34:42.576Z,3.70
2018-06-08T14:37:15.165Z,5.20
2018-06-08T14:39:47.500Z,5.83
2018-06-08T14:42:19.911Z,3.60
2018-06-08T14:44:52.175Z,9.80
2018-06-08T14:47:25.058Z,27.93
2018-06-08T14:49:57.731Z,22.57
2018-06-08T14:52:30.100Z,28.90
2018-06-08T14:55:02.428Z,32.60
2018-06-08T14:57:36.575Z,31.00
2018-06-08T15:00:09.282Z,21.40
2018-06-08T15:02:41.771Z,14.37
2018-06-08T15:05:14.237Z,5.90
2018-06-08T15:07:49.824Z,10.53
2018-06-08T15:10:24.693Z,6.23
2018-06-08T15:12:57.878Z,9.90
2018-06-08T15:15:30.541Z,4.80
2018-06-08T15:18:04.051Z,4.90
2018-06-08T15:20:36.455Z,4.57
2018-06-08T15:23:08.862Z,3.17
2018-06-08T15:25:41.251Z,3.50
2018-06-08T15:28:13.692Z,2.90
2018-06-08T15:30:47.145Z,7.07
2018-06-08T15:33:33.594Z,4.60
2018-06-08T15:36:31.396Z,3.83
2018-06-08T15:39:04.663Z,4.17
2018-06-08T15:41:37.411Z,3.73
2018-06-08T15:44:09.949Z,6.47
2018-06-08T15:46:42.223Z,6.80
2018-06-08T15:49:14.652Z,6.10
2018-06-08T15:51:47.267Z,5.37
2018-06-08T15:54:19.931Z,7.80
2018-06-08T15:56:53.848Z,3.33
2018-06-08T15:59:26.301Z,3.97
2018-06-08T16:01:58.570Z,4.23
2018-06-08T16:04:31.026Z,3.60
2018-06-08T16:07:03.511Z,4.60
2018-06-08T16:09:36.141Z,4.00
2018-06-08T16:12:08.399Z,2.90
2018-06-08T16:14:40.910Z,3.27
2018-06-08T16:17:38.197Z,2.80
2018-06-08T16:20:11.368Z,2.30
2018-06-08T16:22:43.952Z,3.10
2018-06-08T16:25:16.859Z,2.33
2018-06-08T16:27:49.833Z,3.50
2018-06-08T16:30:27.187Z,3.72
2018-06-08T16:32:59.917Z,2.22
2018-06-08T16:35:32.992Z,2.40
2018-06-08T16:38:08.812Z,2.07
2018-06-08T17:01:13.158Z,3.17
2018-06-08T17:03:45.692Z,3.20
2018-06-08T17:06:18.305Z,4.60
2018-06-08T17:08:51.706Z,4.83
2018-06-08T17:11:25.533Z,3.85
2018-06-08T17:13:58.873Z,4.37
2018-06-08T17:16:31.626Z,3.40
2018-06-08T17:19:04.201Z,3.47
2018-06-08T17:21:36.747Z,2.62
2018-06-08T17:24:09.608Z,2.58
2018-06-08T17:26:43.138Z,2.95
2018-06-08T17:29:17.280Z,2.55
2018-06-08T17:31:50.027Z,2.90
2018-06-08T17:34:22.560Z,2.52
2018-06-08T17:36:55.150Z,2.47
2018-06-08T17:39:27.731Z,3.17
2018-06-08T17:42:00.412Z,2.58
2018-06-08T17:44:33.339Z,2.92
2018-06-08T17:47:06.152Z,2.85
2018-06-08T17:49:38.616Z,2.90
2018-06-08T17:52:12.764Z,3.75
2018-06-08T17:54:45.357Z,2.92
2018-06-08T17:57:18.128Z,3.40
2018-06-08T17:59:52.498Z,4.03
2018-06-08T18:02:25.376Z,3.55
2018-06-08T18:04:58.707Z,3.15
2018-06-08T18:07:32.102Z,2.10
2018-06-08T18:13:39.694Z,2.95
2018-06-08T18:16:12.247Z,2.33
2018-06-08T18:18:45.052Z,4.40
2018-06-08T18:21:18.388Z,3.27
2018-06-08T18:23:51.390Z,2.90
2018-06-08T18:26:23.980Z,3.50
2018-06-08T18:28:59.553Z,5.77
2018-06-08T18:31:32.849Z,3.63
2018-06-08T18:34:05.431Z,4.83
2018-06-08T18:36:37.402Z,3.07
2018-06-08T18:39:11.466Z,2.80
2018-06-08T18:41:44.141Z,4.13
2018-06-08T18:44:17.439Z,2.53
2018-06-08T18:46:50.865Z,3.67
2018-06-08T18:49:23.326Z,2.53
2018-06-08T18:51:55.737Z,3.07
2018-06-08T18:54:28.038Z,3.07
2018-06-08T19:00:22.200Z,3.30
2018-06-08T19:02:55.143Z,2.70
2018-06-08T19:05:30.229Z,2.93
2018-06-08T19:08:03.782Z,2.93
2018-06-08T19:10:36.356Z,2.90
2018-06-08T19:13:09.383Z,3.43
2018-06-08T19:15:43.946Z,3.00
2018-06-08T19:18:17.277Z,3.63
2018-06-08T19:20:49.691Z,6.17
2018-06-08T19:23:22.342Z,4.80
2018-06-08T19:25:56.027Z,4.30
2018-06-08T19:28:33.886Z,3.90
2018-06-08T19:31:07.261Z,2.70
2018-06-08T19:33:40.057Z,2.50
2018-06-08T19:36:13.204Z,3.13
2018-06-08T19:38:45.995Z,4.17
2018-06-08T19:41:18.939Z,3.70
2018-06-08T19:43:52.698Z,3.53
2018-06-08T19:46:25.216Z,3.53
2018-06-08T19:48:58.728Z,4.30
2018-06-08T19:51:31.829Z,3.53
2018-06-08T19:54:04.480Z,3.97
2018-06-08T19:56:37.586Z,4.60
2018-06-08T19:59:11.026Z,4.77
2018-06-08T20:05:06.511Z,3.67
2018-06-08T20:07:38.999Z,3.50
2018-06-08T20:10:11.537Z,2.93
2018-06-08T20:12:44.365Z,2.80
2018-06-08T20:15:18.475Z,3.00
2018-06-08T20:17:51.159Z,2.27
2018-06-08T20:20:23.715Z,2.43
2018-06-08T20:22:57.329Z,3.80
2018-06-08T20:25:30.980Z,3.20
2018-06-08T20:28:08.443Z,3.30
2018-06-08T20:30:41.164Z,4.63
2018-06-08T20:33:13.763Z,3.97
2018-06-08T20:35:46.571Z,2.10
2018-06-08T20:38:19.008Z,2.70
2018-06-08T20:40:51.586Z,4.47
2018-06-08T20:43:24.029Z,4.10
2018-06-08T20:45:56.773Z,2.60
2018-06-08T20:48:29.507Z,2.33
2018-06-08T20:51:02.078Z,2.57
2018-06-08T20:53:35.362Z,2.77
2018-06-08T20:56:08.166Z,2.40
2018-06-08T20:58:44.260Z,2.60
2018-06-08T21:01:16.897Z,3.80
2018-06-08T21:03:49.908Z,3.30
2018-06-08T21:06:22.969Z,4.20
2018-06-08T21:08:55.746Z,3.80
2018-06-08T21:11:28.431Z,2.90
2018-06-08T21:14:01.024Z,2.90
2018-06-08T21:16:33.477Z,3.27
2018-06-08T21:19:06.063Z,3.57
2018-06-08T21:21:38.514Z,3.63
2018-06-08T21:24:11.308Z,3.57
2018-06-08T21:26:44.037Z,4.50
2018-06-08T21:29:16.857Z,3.77
2018-06-08T21:31:49.342Z,3.17
2018-06-08T21:34:22.603Z,2.80
2018-06-08T21:36:56.059Z,3.87
2018-06-08T21:39:28.978Z,3.20
2018-06-08T21:42:01.609Z,3.47
2018-06-08T21:44:34.176Z,3.37
2018-06-08T21:47:06.857Z,3.40
2018-06-08T21:49:39.746Z,4.67
2018-06-08T21:52:12.443Z,3.87
2018-06-08T21:54:45.196Z,3.47
2018-06-08T21:57:17.836Z,3.40
2018-06-08T21:59:50.408Z,3.87
2018-06-08T22:02:24.099Z,3.00
2018-06-08T22:04:56.616Z,3.20
2018-06-08T22:07:29.099Z,4.00
2018-06-08T22:10:01.755Z,4.47
2018-06-08T22:12:34.447Z,4.03
2018-06-08T22:15:07.131Z,3.30
2018-06-08T22:17:41.079Z,3.20
2018-06-08T22:20:13.531Z,3.17
2018-06-08T22:22:46.253Z,4.03
2018-06-08T22:25:19.001Z,3.80
2018-06-08T22:27:51.569Z,3.50
2018-06-08T22:30:24.074Z,3.73
2018-06-08T22:32:57.015Z,4.20
2018-06-08T22:38:50.519Z,4.57
2018-06-08T22:41:23.193Z,4.10
2018-06-08T22:43:56.098Z,3.53
2018-06-08T22:46:28.855Z,3.43
2018-06-08T22:49:01.891Z,3.93
2018-06-08T22:51:34.562Z,3.57
2018-06-08T22:54:07.460Z,3.67
2018-06-08T22:56:40.123Z,4.00
2018-06-08T22:59:12.860Z,5.10
2018-06-08T23:01:45.631Z,5.03
2018-06-08T23:04:18.380Z,3.67
2018-06-08T23:06:51.339Z,3.83
2018-06-08T23:09:24.700Z,3.90
2018-06-08T23:11:57.629Z,4.20
2018-06-08T23:14:30.570Z,3.67
2018-06-08T23:17:03.439Z,4.20
2018-06-08T23:19:36.472Z,3.57
2018-06-08T23:22:09.262Z,3.90
2018-06-08T23:24:41.990Z,3.93
2018-06-08T23:27:14.734Z,3.60
2018-06-08T23:29:47.556Z,3.40
2018-06-08T23:32:20.291Z,4.00
2018-06-08T23:34:54.080Z,5.10
2018-06-08T23:37:26.860Z,3.60
2018-06-08T23:40:00.520Z,3.63
2018-06-08T23:42:34.212Z,3.50
2018-06-08T23:45:07.072Z,4.13
2018-06-08T23:47:39.928Z,4.97
2018-06-08T23:50:13.315Z,4.07
2018-06-08T23:52:46.177Z,4.23
2018-06-08T23:55:19.657Z,4.13
2018-06-08T23:57:53.655Z,4.10
